Time;durP1;ratioP1;P1;durP2;ratioP2;P2;SDS_P1;SDS_P2;PMS_P1;PMS_P2;Temp;Humidity;BMP_temperature;BMP_pressure;BME280_temperature;BME280_humidity;BME280_pressure;Samples;Min_cycle;Max_cycle;Signal;HPM_P1;HPM_P2
2022/03/06 00:00:42;;;;;;;13.05;4.68;;;;;;;;;;5095000;28;20308;-41
2022/03/06 00:03:08;;;;;;;12.55;5.63;;;;;;;;;;5094996;28;20028;-44
2022/03/06 00:05:34;;;;;;;15.55;6.35;;;;;;;;;;5094948;28;20089;-42
2022/03/06 00:08:00;;;;;;;13.48;6.10;;;;;;;;;;5094638;28;20032;-41
2022/03/06 00:10:29;;;;;;;15.57;6.72;;;;;;;;;;5094685;28;20352;-42
2022/03/06 00:12:55;;;;;;;13.45;5.90;;;;;;;;;;5094801;28;20031;-43
2022/03/06 00:15:22;;;;;;;15.50;6.00;;;;;;;;;;5094572;28;20020;-42
2022/03/06 00:17:49;;;;;;;13.13;6.22;;;;;;;;;;5094648;28;20456;-43
2022/03/06 00:20:14;;;;;;;14.48;6.70;;;;;;;;;;5094068;28;20043;-41
2022/03/06 00:22:40;;;;;;;14.43;6.80;;;;;;;;;;5094276;28;20034;-42
2022/03/06 00:25:06;;;;;;;10.48;6.15;;;;;;;;;;5094213;28;20103;-41
2022/03/06 00:27:32;;;;;;;11.13;6.40;;;;;;;;;;5094225;28;20108;-43
2022/03/06 00:29:58;;;;;;;12.35;6.65;;;;;;;;;;5094169;28;20142;-41
2022/03/06 00:32:24;;;;;;;11.60;5.65;;;;;;;;;;5094025;28;20027;-41
2022/03/06 00:34:49;;;;;;;18.20;7.53;;;;;;;;;;5093990;28;20027;-42
2022/03/06 00:37:16;;;;;;;12.55;6.53;;;;;;;;;;5094306;28;20035;-42
2022/03/06 00:39:42;;;;;;;15.52;7.30;;;;;;;;;;5093873;28;20027;-42
2022/03/06 00:42:09;;;;;;;28.83;11.57;;;;;;;;;;5094515;28;20110;-42
2022/03/06 00:44:35;;;;;;;46.33;18.42;;;;;;;;;;5093869;28;20388;-42
2022/03/06 00:47:01;;;;;;;84.35;32.50;;;;;;;;;;5092587;28;20032;-42
2022/03/06 00:49:26;;;;;;;50.50;22.77;;;;;;;;;;5093759;28;20065;-42
2022/03/06 00:51:52;;;;;;;20.63;9.75;;;;;;;;;;5093716;28;20028;-41
2022/03/06 00:54:19;;;;;;;17.38;5.57;;;;;;;;;;5093664;28;20441;-42
2022/03/06 00:56:45;;;;;;;9.55;4.28;;;;;;;;;;5093524;28;20024;-41
2022/03/06 00:59:11;;;;;;;16.55;5.40;;;;;;;;;;5093497;28;20035;-40
2022/03/06 01:01:36;;;;;;;17.90;7.10;;;;;;;;;;5093531;28;20107;-41
2022/03/06 01:04:02;;;;;;;14.55;6.50;;;;;;;;;;5092217;28;20024;-41
2022/03/06 01:06:27;;;;;;;8.48;4.95;;;;;;;;;;5093787;28;20035;-42
2022/03/06 01:08:53;;;;;;;11.65;5.38;;;;;;;;;;5092138;28;20024;-42
2022/03/06 01:11:20;;;;;;;13.77;5.35;;;;;;;;;;5093290;28;20047;-41
2022/03/06 01:13:46;;;;;;;7.63;4.82;;;;;;;;;;5092128;28;20027;-42
2022/03/06 01:16:12;;;;;;;5.00;3.67;;;;;;;;;;5093806;28;20372;-41
2022/03/06 01:18:38;;;;;;;5.95;3.80;;;;;;;;;;5091947;28;20021;-42
2022/03/06 01:21:06;;;;;;;7.03;4.07;;;;;;;;;;5092938;28;20078;-42
2022/03/06 01:23:32;;;;;;;17.80;5.90;;;;;;;;;;5092524;28;20032;-42
2022/03/06 01:25:58;;;;;;;8.60;5.68;;;;;;;;;;5093094;28;20031;-41
2022/03/06 01:28:23;;;;;;;17.40;6.55;;;;;;;;;;5091847;28;20536;-42
2022/03/06 01:30:49;;;;;;;3.35;2.55;;;;;;;;;;5093131;28;20353;-42
2022/03/06 01:33:15;;;;;;;11.65;5.15;;;;;;;;;;5093232;28;20024;-41
2022/03/06 01:35:40;;;;;;;7.75;4.70;;;;;;;;;;5093021;28;20472;-42
2022/03/06 01:38:06;;;;;;;9.68;4.28;;;;;;;;;;5093217;28;20430;-41
2022/03/06 01:40:31;;;;;;;10.75;5.50;;;;;;;;;;5092800;28;20078;-42
2022/03/06 01:42:57;;;;;;;6.57;4.22;;;;;;;;;;5093027;28;20059;-41
2022/03/06 01:45:23;;;;;;;7.03;4.53;;;;;;;;;;5091498;28;20384;-41
2022/03/06 01:47:51;;;;;;;5.30;3.53;;;;;;;;;;5092839;28;20020;-42
2022/03/06 01:50:24;;;;;;;8.77;5.22;;;;;;;;;;5092972;28;20050;-41
2022/03/06 01:52:51;;;;;;;10.80;4.55;;;;;;;;;;5092951;28;20047;-42
2022/03/06 01:55:18;;;;;;;10.77;5.32;;;;;;;;;;5091427;28;20032;-41
2022/03/06 01:57:45;;;;;;;7.28;3.95;;;;;;;;;;5092988;28;20077;-42
2022/03/06 02:00:18;;;;;;;6.82;4.53;;;;;;;;;;5092613;28;20577;-42
2022/03/06 02:02:44;;;;;;;10.77;5.57;;;;;;;;;;5092844;28;20379;-41
2022/03/06 02:05:10;;;;;;;9.43;4.82;;;;;;;;;;5092488;28;20024;-43
2022/03/06 02:07:36;;;;;;;11.20;5.03;;;;;;;;;;5092817;28;20031;-42
2022/03/06 02:10:04;;;;;;;9.98;5.72;;;;;;;;;;5092763;28;20119;-42
2022/03/06 02:12:30;;;;;;;7.88;4.53;;;;;;;;;;5092422;28;20425;-41
2022/03/06 02:14:57;;;;;;;4.63;2.67;;;;;;;;;;5092430;28;20024;-41
2022/03/06 02:17:24;;;;;;;5.03;3.00;;;;;;;;;;5092651;28;20024;-41
2022/03/06 02:19:54;;;;;;;3.38;2.22;;;;;;;;;;5091172;28;20055;-41
2022/03/06 02:22:43;;;;;;;8.00;3.13;;;;;;;;;;5092687;28;20027;-40
2022/03/06 02:25:13;;;;;;;4.00;2.92;;;;;;;;;;5081334;28;20069;-41
2022/03/06 02:27:39;;;;;;;4.15;2.53;;;;;;;;;;5092358;28;20031;-41
2022/03/06 02:30:07;;;;;;;4.40;3.20;;;;;;;;;;5092376;28;20095;-41
2022/03/06 02:32:32;;;;;;;7.30;4.18;;;;;;;;;;5092309;28;20020;-41
2022/03/06 02:34:58;;;;;;;2.05;1.85;;;;;;;;;;5094462;28;20039;-41
2022/03/06 02:37:23;;;;;;;5.03;3.40;;;;;;;;;;5095091;28;20099;-41
2022/03/06 02:39:49;;;;;;;7.82;3.55;;;;;;;;;;5096492;28;20367;-43
2022/03/06 02:42:29;;;;;;;7.10;3.00;;;;;;;;;;5096267;28;20020;-41
2022/03/06 02:44:58;;;;;;;6.63;4.35;;;;;;;;;;5096537;28;20054;-42
2022/03/06 02:47:24;;;;;;;6.90;4.13;;;;;;;;;;5096144;28;20035;-43
2022/03/06 02:49:51;;;;;;;7.47;3.75;;;;;;;;;;5096311;28;20024;-43
2022/03/06 02:52:16;;;;;;;10.68;4.60;;;;;;;;;;5094777;28;20028;-43
2022/03/06 02:54:42;;;;;;;9.38;4.25;;;;;;;;;;5096316;28;20035;-43
2022/03/06 02:57:08;;;;;;;8.82;5.07;;;;;;;;;;5095910;28;20407;-43
2022/03/06 02:59:34;;;;;;;7.80;4.85;;;;;;;;;;5096091;28;20051;-43
2022/03/06 03:02:00;;;;;;;11.82;5.15;;;;;;;;;;5095867;28;20020;-43
2022/03/06 03:04:25;;;;;;;7.72;4.07;;;;;;;;;;5096107;28;20103;-43
2022/03/06 03:06:52;;;;;;;5.50;3.53;;;;;;;;;;5096021;28;20476;-42
2022/03/06 03:09:19;;;;;;;9.77;3.95;;;;;;;;;;5095661;28;20024;-42
2022/03/06 03:11:50;;;;;;;5.13;3.83;;;;;;;;;;5095872;28;20093;-41
2022/03/06 03:14:16;;;;;;;6.32;3.17;;;;;;;;;;5095691;28;20418;-43
2022/03/06 03:16:42;;;;;;;11.45;4.78;;;;;;;;;;5095817;28;20077;-43
2022/03/06 03:19:08;;;;;;;9.35;5.00;;;;;;;;;;5095419;28;20028;-42
2022/03/06 03:21:34;;;;;;;7.07;3.95;;;;;;;;;;5095423;28;20435;-41
2022/03/06 03:23:59;;;;;;;11.43;4.45;;;;;;;;;;5095360;28;20049;-42
2022/03/06 03:26:25;;;;;;;7.45;3.80;;;;;;;;;;5095456;28;20024;-42
2022/03/06 03:28:51;;;;;;;8.68;5.00;;;;;;;;;;5095652;28;20407;-42
2022/03/06 03:31:17;;;;;;;9.15;5.03;;;;;;;;;;5095330;28;20020;-42
2022/03/06 03:33:43;;;;;;;6.07;4.03;;;;;;;;;;5093989;28;20103;-42
2022/03/06 03:36:09;;;;;;;6.22;3.95;;;;;;;;;;5095219;28;20578;-42
2022/03/06 03:38:35;;;;;;;11.55;5.28;;;;;;;;;;5095165;28;20022;-42
2022/03/06 03:41:01;;;;;;;8.40;4.40;;;;;;;;;;5094989;28;20107;-43
2022/03/06 03:43:28;;;;;;;9.75;4.97;;;;;;;;;;5095356;28;20166;-42
2022/03/06 03:45:53;;;;;;;7.72;4.03;;;;;;;;;;5094749;28;20425;-42
2022/03/06 03:48:19;;;;;;;11.05;5.38;;;;;;;;;;5094980;28;20016;-42
2022/03/06 03:50:44;;;;;;;11.30;4.72;;;;;;;;;;5094970;28;20099;-43
2022/03/06 03:53:10;;;;;;;9.35;5.43;;;;;;;;;;5094896;28;20020;-42
2022/03/06 03:55:35;;;;;;;7.72;4.40;;;;;;;;;;5094837;28;20024;-42
2022/03/06 03:58:01;;;;;;;8.38;4.70;;;;;;;;;;5094844;28;20025;-42
2022/03/06 04:00:27;;;;;;;9.48;4.85;;;;;;;;;;5095025;28;20113;-42
2022/03/06 04:02:53;;;;;;;7.43;3.80;;;;;;;;;;5093454;28;20016;-42
2022/03/06 04:05:18;;;;;;;5.70;4.03;;;;;;;;;;5094628;28;20020;-42
2022/03/06 04:07:44;;;;;;;3.83;2.42;;;;;;;;;;5094553;28;20036;-42
2022/03/06 04:10:09;;;;;;;5.40;3.47;;;;;;;;;;5093559;28;20036;-41
2022/03/06 04:12:35;;;;;;;5.57;4.15;;;;;;;;;;5094537;28;20075;-40
2022/03/06 04:15:00;;;;;;;8.45;4.25;;;;;;;;;;5094437;28;20030;-41
2022/03/06 04:17:26;;;;;;;12.60;6.15;;;;;;;;;;5094671;28;20051;-42
2022/03/06 04:19:54;;;;;;;9.43;4.72;;;;;;;;;;5094151;28;20083;-42
2022/03/06 04:22:20;;;;;;;3.72;2.17;;;;;;;;;;5094515;28;20392;-42
2022/03/06 04:24:45;;;;;;;8.23;4.28;;;;;;;;;;5094536;28;20032;-42
2022/03/06 04:27:11;;;;;;;5.78;4.10;;;;;;;;;;5093348;28;20484;-42
2022/03/06 04:29:36;;;;;;;7.10;4.90;;;;;;;;;;5092864;28;20028;-42
2022/03/06 04:32:03;;;;;;;7.63;4.07;;;;;;;;;;5094393;28;20383;-42
2022/03/06 04:34:28;;;;;;;8.15;4.93;;;;;;;;;;5094034;28;20035;-42
2022/03/06 04:36:54;;;;;;;8.45;3.33;;;;;;;;;;5094074;28;20032;-42
2022/03/06 04:39:19;;;;;;;5.15;2.22;;;;;;;;;;5094300;28;20020;-41
2022/03/06 04:41:45;;;;;;;3.53;3.22;;;;;;;;;;5093866;28;20468;-43
2022/03/06 04:44:12;;;;;;;9.10;4.65;;;;;;;;;;5093115;28;20189;-42
2022/03/06 04:46:38;;;;;;;7.07;3.90;;;;;;;;;;5094191;28;20028;-47
2022/03/06 04:49:03;;;;;;;2.30;2.03;;;;;;;;;;5094163;28;20086;-43
2022/03/06 04:51:29;;;;;;;10.52;4.90;;;;;;;;;;5093725;28;20392;-48
2022/03/06 04:53:54;;;;;;;5.72;3.60;;;;;;;;;;5093780;28;20378;-43
2022/03/06 04:56:20;;;;;;;9.25;4.63;;;;;;;;;;5093499;28;20024;-45
2022/03/06 04:58:45;;;;;;;8.27;4.70;;;;;;;;;;5093605;28;20059;-43
2022/03/06 05:01:11;;;;;;;9.70;4.25;;;;;;;;;;5093473;28;20111;-44
2022/03/06 05:03:36;;;;;;;7.38;5.07;;;;;;;;;;5093539;28;20016;-43
2022/03/06 05:06:02;;;;;;;8.48;4.60;;;;;;;;;;5092244;28;20084;-44
2022/03/06 05:08:28;;;;;;;10.23;4.95;;;;;;;;;;5093350;28;20024;-44
2022/03/06 05:10:55;;;;;;;9.32;4.80;;;;;;;;;;5093657;28;20028;-43
2022/03/06 05:13:22;;;;;;;7.55;4.47;;;;;;;;;;5093634;28;20395;-45
2022/03/06 05:15:48;;;;;;;7.88;4.07;;;;;;;;;;5093299;28;20472;-42
2022/03/06 05:18:13;;;;;;;6.38;3.47;;;;;;;;;;5093215;28;20035;-47
2022/03/06 05:20:39;;;;;;;10.38;3.92;;;;;;;;;;5092994;28;20058;-44
2022/03/06 05:23:05;;;;;;;9.10;4.93;;;;;;;;;;5093175;28;20020;-45
2022/03/06 05:25:30;;;;;;;9.27;4.75;;;;;;;;;;5093392;28;20378;-42
2022/03/06 05:27:56;;;;;;;7.78;4.47;;;;;;;;;;5093037;28;20070;-44
2022/03/06 05:30:22;;;;;;;7.28;4.68;;;;;;;;;;5093049;28;20380;-43
2022/03/06 05:32:48;;;;;;;5.18;3.45;;;;;;;;;;5091784;28;20039;-42
2022/03/06 05:35:14;;;;;;;9.18;4.50;;;;;;;;;;5092937;28;20052;-43
2022/03/06 05:37:40;;;;;;;9.48;5.28;;;;;;;;;;5093189;28;20470;-43
2022/03/06 05:40:06;;;;;;;5.30;3.55;;;;;;;;;;5092820;28;20063;-45
2022/03/06 05:42:32;;;;;;;12.73;4.82;;;;;;;;;;5092861;28;20092;-41
2022/03/06 05:44:58;;;;;;;10.85;5.63;;;;;;;;;;5092859;28;20024;-45
2022/03/06 05:47:23;;;;;;;8.18;3.90;;;;;;;;;;5092980;28;20074;-43
2022/03/06 05:49:49;;;;;;;8.35;4.38;;;;;;;;;;5093091;28;20364;-42
2022/03/06 05:52:14;;;;;;;3.78;2.30;;;;;;;;;;5092815;28;20027;-44
2022/03/06 05:54:40;;;;;;;3.90;3.28;;;;;;;;;;5091433;28;20054;-42
2022/03/06 05:57:06;;;;;;;5.65;2.33;;;;;;;;;;5092702;28;20028;-42
2022/03/06 05:59:32;;;;;;;7.75;3.88;;;;;;;;;;5091297;28;20024;-45
2022/03/06 06:01:58;;;;;;;6.95;3.47;;;;;;;;;;5092509;28;20032;-44
2022/03/06 06:04:24;;;;;;;5.78;3.20;;;;;;;;;;5092593;28;20399;-43
2022/03/06 06:06:49;;;;;;;5.28;4.05;;;;;;;;;;5092531;28;20023;-43
2022/03/06 06:09:15;;;;;;;8.25;4.85;;;;;;;;;;5092260;28;20028;-46
2022/03/06 06:11:41;;;;;;;10.65;6.50;;;;;;;;;;5092531;28;20020;-48
2022/03/06 06:14:07;;;;;;;13.20;6.05;;;;;;;;;;5092424;28;20016;-44
2022/03/06 06:16:32;;;;;;;9.48;5.72;;;;;;;;;;5092502;28;20085;-44
2022/03/06 06:18:58;;;;;;;5.85;3.50;;;;;;;;;;5092435;28;20051;-45
2022/03/06 06:21:23;;;;;;;8.38;4.93;;;;;;;;;;5092103;28;20109;-44
2022/03/06 06:23:49;;;;;;;10.65;5.93;;;;;;;;;;5092404;28;20027;-44
2022/03/06 06:26:15;;;;;;;8.70;4.57;;;;;;;;;;5092422;28;20020;-44
2022/03/06 06:28:40;;;;;;;11.38;5.60;;;;;;;;;;5092524;28;20020;-45
2022/03/06 06:31:07;;;;;;;4.25;3.25;;;;;;;;;;5092545;28;20028;-47
2022/03/06 06:33:34;;;;;;;8.35;3.85;;;;;;;;;;5092349;28;20066;-43
2022/03/06 06:36:00;;;;;;;6.25;4.85;;;;;;;;;;5090972;28;20024;-48
2022/03/06 06:38:26;;;;;;;8.20;5.72;;;;;;;;;;5092549;28;20024;-46
2022/03/06 06:40:52;;;;;;;11.20;7.00;;;;;;;;;;5092372;28;20368;-43
2022/03/06 06:43:19;;;;;;;10.90;7.40;;;;;;;;;;5092111;28;20479;-47
2022/03/06 06:45:45;;;;;;;15.50;8.43;;;;;;;;;;5092214;28;20048;-49
2022/03/06 06:48:11;;;;;;;12.68;6.15;;;;;;;;;;5092405;28;20020;-46
2022/03/06 06:50:36;;;;;;;10.13;6.18;;;;;;;;;;5092154;28;20494;-43
2022/03/06 06:53:02;;;;;;;14.32;9.02;;;;;;;;;;5092086;28;20502;-45
2022/03/06 06:55:28;;;;;;;12.93;7.82;;;;;;;;;;5090810;28;20024;-46
2022/03/06 06:57:53;;;;;;;12.05;7.10;;;;;;;;;;5092382;28;20074;-43
2022/03/06 07:00:19;;;;;;;16.50;9.60;;;;;;;;;;5092026;28;20483;-44
2022/03/06 07:02:46;;;;;;;10.00;6.25;;;;;;;;;;5092021;28;20066;-45
2022/03/06 07:05:11;;;;;;;13.70;8.75;;;;;;;;;;5092016;28;20024;-45
2022/03/06 07:07:37;;;;;;;10.68;6.75;;;;;;;;;;5091940;28;20016;-43
2022/03/06 07:10:04;;;;;;;16.17;10.05;;;;;;;;;;5091971;28;20055;-43
2022/03/06 07:12:30;;;;;;;15.32;10.52;;;;;;;;;;5091867;28;20130;-45
2022/03/06 07:14:55;;;;;;;15.45;9.35;;;;;;;;;;5092241;28;20100;-44
2022/03/06 07:17:21;;;;;;;16.23;10.48;;;;;;;;;;5091819;28;20035;-45
2022/03/06 07:19:46;;;;;;;15.63;10.15;;;;;;;;;;5091733;28;20548;-44
2022/03/06 07:22:12;;;;;;;13.80;9.20;;;;;;;;;;5095516;28;20024;-44
2022/03/06 07:24:37;;;;;;;17.15;9.88;;;;;;;;;;5095459;28;20055;-43
2022/03/06 07:27:03;;;;;;;15.98;10.77;;;;;;;;;;5094037;28;20157;-44
2022/03/06 07:29:29;;;;;;;18.25;11.35;;;;;;;;;;5095667;28;20380;-42
2022/03/06 07:31:54;;;;;;;15.85;11.27;;;;;;;;;;5095342;28;20031;-43
2022/03/06 07:34:20;;;;;;;15.00;7.13;;;;;;;;;;5093991;28;20441;-45
2022/03/06 07:36:45;;;;;;;22.23;13.10;;;;;;;;;;5095223;28;20024;-44
2022/03/06 07:39:11;;;;;;;21.90;13.48;;;;;;;;;;5095175;28;20047;-48
2022/03/06 07:41:36;;;;;;;19.77;11.85;;;;;;;;;;5095011;28;20110;-44
2022/03/06 07:44:02;;;;;;;18.25;10.35;;;;;;;;;;5095030;28;20032;-44
2022/03/06 07:46:27;;;;;;;23.33;13.75;;;;;;;;;;5095321;28;20047;-45
2022/03/06 07:48:53;;;;;;;20.60;11.85;;;;;;;;;;5094918;28;20101;-42
2022/03/06 07:51:21;;;;;;;24.38;13.45;;;;;;;;;;5095017;28;20121;-43
2022/03/06 07:53:47;;;;;;;24.13;12.80;;;;;;;;;;5095169;28;20024;-44
2022/03/06 07:56:12;;;;;;;20.92;11.55;;;;;;;;;;5095138;28;20390;-43
2022/03/06 07:58:38;;;;;;;17.02;9.95;;;;;;;;;;5094883;28;20024;-43
2022/03/06 08:01:03;;;;;;;23.05;13.65;;;;;;;;;;5094667;28;20028;-43
2022/03/06 08:03:29;;;;;;;26.05;13.50;;;;;;;;;;5094732;28;20031;-43
2022/03/06 08:05:54;;;;;;;19.60;10.63;;;;;;;;;;5094989;28;20063;-48
2022/03/06 08:08:20;;;;;;;28.05;15.63;;;;;;;;;;5094606;28;20391;-43
2022/03/06 08:10:45;;;;;;;23.98;13.90;;;;;;;;;;5076428;28;20031;-42
2022/03/06 08:13:11;;;;;;;24.90;14.68;;;;;;;;;;5094504;28;20031;-44
2022/03/06 08:15:36;;;;;;;31.58;17.25;;;;;;;;;;5094446;28;20056;-43
2022/03/06 08:18:02;;;;;;;26.65;16.83;;;;;;;;;;5094807;28;20058;-43
2022/03/06 08:20:29;;;;;;;28.52;15.30;;;;;;;;;;5093997;28;20044;-43
2022/03/06 08:22:55;;;;;;;29.48;16.90;;;;;;;;;;5094294;28;20107;-43
2022/03/06 08:25:20;;;;;;;24.85;14.50;;;;;;;;;;5094589;28;20048;-47
2022/03/06 08:27:47;;;;;;;35.10;16.55;;;;;;;;;;5094170;28;20070;-45
2022/03/06 08:30:13;;;;;;;24.63;14.52;;;;;;;;;;5094138;28;20034;-43
2022/03/06 08:32:40;;;;;;;25.13;15.50;;;;;;;;;;5094322;28;20111;-43
2022/03/06 08:35:07;;;;;;;26.05;13.70;;;;;;;;;;5093903;28;20467;-43
2022/03/06 08:37:32;;;;;;;16.63;8.93;;;;;;;;;;5094007;28;20028;-48
2022/03/06 08:39:58;;;;;;;30.52;13.88;;;;;;;;;;5093861;28;20380;-43
2022/03/06 08:42:24;;;;;;;25.92;15.32;;;;;;;;;;5093913;28;20107;-43
2022/03/06 08:44:49;;;;;;;18.00;9.88;;;;;;;;;;5093836;28;20035;-42
2022/03/06 08:47:15;;;;;;;21.70;13.32;;;;;;;;;;5093775;28;20020;-45
2022/03/06 08:49:40;;;;;;;29.83;17.02;;;;;;;;;;5094072;28;20369;-47
2022/03/06 08:52:07;;;;;;;21.50;10.93;;;;;;;;;;5093805;28;20028;-45
2022/03/06 08:54:33;;;;;;;15.95;9.38;;;;;;;;;;5093771;28;20016;-44
2022/03/06 08:56:59;;;;;;;23.30;11.65;;;;;;;;;;5093661;28;20028;-47
2022/03/06 08:59:24;;;;;;;27.95;16.17;;;;;;;;;;5093608;28;20107;-45
2022/03/06 09:01:55;;;;;;;23.65;12.48;;;;;;;;;;5093722;28;20028;-44
2022/03/06 09:04:24;;;;;;;22.67;11.73;;;;;;;;;;5093594;28;20035;-43
2022/03/06 09:06:51;;;;;;;22.23;10.02;;;;;;;;;;5093341;28;20414;-43
2022/03/06 09:09:17;;;;;;;18.65;10.55;;;;;;;;;;5093383;28;20047;-43
2022/03/06 09:11:42;;;;;;;27.52;15.75;;;;;;;;;;5093350;28;20022;-42
2022/03/06 09:14:08;;;;;;;17.80;9.13;;;;;;;;;;5093638;28;20020;-43
2022/03/06 09:16:34;;;;;;;13.65;8.82;;;;;;;;;;5093319;28;20032;-45
2022/03/06 09:19:01;;;;;;;22.88;15.73;;;;;;;;;;5093192;28;20020;-43
2022/03/06 09:21:27;;;;;;;22.30;12.82;;;;;;;;;;5092962;28;20056;-43
2022/03/06 09:23:53;;;;;;;24.73;14.93;;;;;;;;;;5093151;28;20052;-45
2022/03/06 09:26:19;;;;;;;16.17;9.90;;;;;;;;;;5093441;28;20364;-43
2022/03/06 09:28:44;;;;;;;11.70;7.28;;;;;;;;;;5093447;28;20053;-42
2022/03/06 09:31:10;;;;;;;15.15;9.07;;;;;;;;;;5093287;28;20078;-43
2022/03/06 09:33:36;;;;;;;18.75;9.38;;;;;;;;;;5093334;28;20043;-45
2022/03/06 09:36:02;;;;;;;24.35;14.32;;;;;;;;;;5092975;28;20464;-44
2022/03/06 09:38:28;;;;;;;19.58;12.43;;;;;;;;;;5093025;28;20027;-43
2022/03/06 09:40:54;;;;;;;22.77;15.32;;;;;;;;;;5092854;28;20032;-45
2022/03/06 09:43:20;;;;;;;16.38;9.90;;;;;;;;;;5092746;28;20020;-46
2022/03/06 09:45:48;;;;;;;13.98;8.13;;;;;;;;;;5093098;28;20374;-43
2022/03/06 09:48:16;;;;;;;23.42;13.77;;;;;;;;;;5092833;28;20056;-43
2022/03/06 09:50:43;;;;;;;25.80;15.35;;;;;;;;;;5093016;28;20383;-43
2022/03/06 09:53:09;;;;;;;21.60;13.82;;;;;;;;;;5092954;28;20383;-43
2022/03/06 09:55:35;;;;;;;22.30;13.30;;;;;;;;;;5092772;28;20066;-43
2022/03/06 09:58:01;;;;;;;20.13;11.85;;;;;;;;;;5092707;28;20020;-44
2022/03/06 10:00:27;;;;;;;22.77;14.35;;;;;;;;;;5092514;28;20528;-43
2022/03/06 10:02:59;;;;;;;21.33;13.00;;;;;;;;;;5092645;28;20024;-42
2022/03/06 10:05:30;;;;;;;25.08;13.45;;;;;;;;;;5092712;28;20079;-43
2022/03/06 10:08:20;;;;;;;26.73;13.10;;;;;;;;;;5092893;28;20052;-42
2022/03/06 10:10:47;;;;;;;20.42;13.25;;;;;;;;;;5092343;28;20426;-42
2022/03/06 10:13:23;;;;;;;16.90;10.57;;;;;;;;;;5092266;28;20478;-42
2022/03/06 10:16:10;;;;;;;15.25;8.65;;;;;;;;;;5092308;28;20054;-44
2022/03/06 10:18:41;;;;;;;22.63;13.63;;;;;;;;;;5092285;28;20111;-50
2022/03/06 10:21:23;;;;;;;15.57;9.13;;;;;;;;;;5091994;28;20048;-42
2022/03/06 10:24:00;;;;;;;17.70;11.00;;;;;;;;;;5092260;28;20024;-42
2022/03/06 10:26:27;;;;;;;24.60;13.60;;;;;;;;;;5092271;28;20384;-45
2022/03/06 10:29:00;;;;;;;13.00;8.05;;;;;;;;;;5092268;28;20024;-43
2022/03/06 10:31:31;;;;;;;17.17;9.23;;;;;;;;;;5092201;28;20031;-42
2022/03/06 10:33:59;;;;;;;23.98;12.35;;;;;;;;;;5091946;28;20107;-41
2022/03/06 10:36:46;;;;;;;20.10;9.55;;;;;;;;;;5092388;28;20028;-42
2022/03/06 10:39:19;;;;;;;17.10;10.48;;;;;;;;;;5092404;28;20130;-43
2022/03/06 10:41:50;;;;;;;15.13;8.63;;;;;;;;;;5092182;28;20028;-43
2022/03/06 10:44:16;;;;;;;;;;;;;;;;;;5091939;28;20042;-43
2022/03/06 10:46:42;;;;;;;19.35;11.50;;;;;;;;;;5090559;28;20334;-42
2022/03/06 10:49:14;;;;;;;18.85;10.95;;;;;;;;;;5090400;28;20024;-43
2022/03/06 10:51:46;;;;;;;13.98;7.60;;;;;;;;;;5089952;28;20035;-46
2022/03/06 10:54:14;;;;;;;17.60;10.07;;;;;;;;;;5090122;28;20107;-44
2022/03/06 10:56:47;;;;;;;12.40;6.63;;;;;;;;;;5093545;28;20028;-42
2022/03/06 10:59:17;;;;;;;12.02;6.18;;;;;;;;;;5094993;28;20032;-43
2022/03/06 11:01:43;;;;;;;10.13;6.88;;;;;;;;;;5095926;28;20074;-44
2022/03/06 11:04:12;;;;;;;13.30;9.02;;;;;;;;;;5095821;28;20383;-43
2022/03/06 11:06:42;;;;;;;14.88;8.82;;;;;;;;;;5095924;28;20110;-43
2022/03/06 11:09:12;;;;;;;8.85;6.68;;;;;;;;;;5096132;28;20170;-43
2022/03/06 11:11:46;;;;;;;23.60;12.48;;;;;;;;;;5095782;28;20554;-43
2022/03/06 11:14:12;;;;;;;17.38;10.30;;;;;;;;;;5095997;28;20469;-43
2022/03/06 11:16:40;;;;;;;15.07;8.77;;;;;;;;;;5094665;28;20028;-42
2022/03/06 11:19:07;;;;;;;13.45;6.22;;;;;;;;;;5095207;28;20506;-43
2022/03/06 11:21:34;;;;;;;19.55;13.68;;;;;;;;;;5095651;28;20048;-41
2022/03/06 11:24:07;;;;;;;17.88;10.13;;;;;;;;;;5095738;28;20054;-43
2022/03/06 11:26:47;;;;;;;10.95;6.70;;;;;;;;;;5095372;28;20058;-45
2022/03/06 11:29:31;;;;;;;;;;;;;;;;;;5095781;28;20035;-43
2022/03/06 11:32:06;;;;;;;20.17;7.57;;;;;;;;;;5095445;28;20274;-42
2022/03/06 11:34:34;;;;;;;14.52;8.63;;;;;;;;;;5095446;28;20032;-45
2022/03/06 11:37:05;;;;;;;15.73;8.05;;;;;;;;;;5095148;28;20074;-43
2022/03/06 11:39:30;;;;;;;14.10;9.25;;;;;;;;;;5095142;28;20035;-44
2022/03/06 11:42:01;;;;;;;18.77;10.23;;;;;;;;;;5094988;28;20032;-45
2022/03/06 11:44:41;;;;;;;12.75;8.35;;;;;;;;;;5095006;28;20453;-43
2022/03/06 11:47:19;;;;;;;15.02;10.00;;;;;;;;;;5095260;28;20072;-44
2022/03/06 11:49:55;;;;;;;16.55;10.27;;;;;;;;;;5093965;28;20475;-44
2022/03/06 11:52:27;;;;;;;17.23;9.52;;;;;;;;;;5093934;28;20055;-45
2022/03/06 11:54:53;;;;;;;14.65;8.30;;;;;;;;;;5094984;28;20020;-43
2022/03/06 11:57:38;;;;;;;15.10;8.32;;;;;;;;;;5095000;28;20103;-44
2022/03/06 12:00:18;;;;;;;16.38;9.55;;;;;;;;;;5094642;28;20030;-43
2022/03/06 12:02:48;;;;;;;19.63;13.00;;;;;;;;;;5094768;28;20059;-44
2022/03/06 12:05:17;;;;;;;8.02;5.97;;;;;;;;;;5094525;28;20028;-43
2022/03/06 12:07:46;;;;;;;11.55;7.03;;;;;;;;;;5094119;28;20028;-44
2022/03/06 12:10:14;;;;;;;14.85;8.43;;;;;;;;;;5094615;28;20103;-43
2022/03/06 12:12:39;;;;;;;10.13;6.03;;;;;;;;;;5092424;28;20691;-45
2022/03/06 12:15:14;;;;;;;15.50;8.52;;;;;;;;;;5090889;28;20081;-44
2022/03/06 12:17:40;;;;;;;18.50;10.55;;;;;;;;;;5094651;28;20058;-45
2022/03/06 12:20:08;;;;;;;18.98;12.00;;;;;;;;;;5094155;28;20449;-43
2022/03/06 12:22:45;;;;;;;15.85;8.82;;;;;;;;;;5094621;28;20042;-43
2022/03/06 12:25:10;;;;;;;10.70;6.60;;;;;;;;;;5094652;28;20107;-44
2022/03/06 12:27:42;;;;;;;12.27;7.55;;;;;;;;;;5094235;28;20109;-45
2022/03/06 12:30:10;;;;;;;16.52;9.48;;;;;;;;;;5094157;28;20361;-45
2022/03/06 12:32:41;;;;;;;20.02;11.52;;;;;;;;;;5094171;28;20031;-43
2022/03/06 12:35:10;;;;;;;;;;;;;;;;;;5094821;28;20030;-44
2022/03/06 12:37:36;;;;;;;21.65;11.65;;;;;;;;;;5094175;28;19911;-51
2022/03/06 12:40:08;;;;;;;6.25;4.45;;;;;;;;;;5094321;28;20050;-43
2022/03/06 12:42:36;;;;;;;23.42;7.97;;;;;;;;;;5094865;28;20021;-44
2022/03/06 12:45:15;;;;;;;7.70;5.50;;;;;;;;;;5093803;28;20059;-44
2022/03/06 12:47:43;;;;;;;11.10;6.93;;;;;;;;;;5093963;28;20031;-47
2022/03/06 12:50:18;;;;;;;14.32;8.10;;;;;;;;;;5093749;28;20020;-43
2022/03/06 12:52:44;;;;;;;11.20;7.95;;;;;;;;;;5093787;28;20016;-44
2022/03/06 12:55:15;;;;;;;15.98;10.20;;;;;;;;;;5093959;28;20020;-50
2022/03/06 12:57:48;;;;;;;12.07;7.78;;;;;;;;;;5093640;28;20464;-49
2022/03/06 13:00:23;;;;;;;10.23;7.03;;;;;;;;;;5093465;28;20030;-45
2022/03/06 13:02:53;;;;;;;10.98;6.68;;;;;;;;;;5092803;28;20032;-44
2022/03/06 13:05:20;;;;;;;12.63;7.78;;;;;;;;;;5093612;28;20038;-46
2022/03/06 13:07:47;;;;;;;13.05;8.20;;;;;;;;;;5093154;28;20055;-46
2022/03/06 13:10:14;;;;;;;15.75;8.43;;;;;;;;;;5093149;28;20028;-51
2022/03/06 13:12:44;;;;;;;9.18;5.78;;;;;;;;;;5093009;28;20024;-45
2022/03/06 13:15:12;;;;;;;15.50;9.02;;;;;;;;;;5093043;28;20028;-44
2022/03/06 13:17:41;;;;;;;13.23;8.73;;;;;;;;;;5092511;28;20035;-44
2022/03/06 13:20:09;;;;;;;15.63;8.40;;;;;;;;;;5092933;28;20048;-43
2022/03/06 13:22:35;;;;;;;7.47;5.18;;;;;;;;;;5091265;28;20043;-45
2022/03/06 13:25:02;;;;;;;12.93;8.27;;;;;;;;;;5091074;28;20125;-43
2022/03/06 13:27:30;;;;;;;12.02;6.63;;;;;;;;;;5093222;28;20052;-44
2022/03/06 13:30:17;;;;;;;12.32;5.00;;;;;;;;;;5092889;28;20122;-49
2022/03/06 13:32:54;;;;;;;13.35;8.60;;;;;;;;;;5088869;28;20122;-45
2022/03/06 13:35:30;;;;;;;13.43;8.73;;;;;;;;;;5092979;28;20024;-49
2022/03/06 13:38:13;;;;;;;8.45;5.50;;;;;;;;;;5093565;28;20395;-47
2022/03/06 13:40:53;;;;;;;9.10;6.28;;;;;;;;;;5093178;28;20051;-49
2022/03/06 13:43:34;;;;;;;12.73;8.43;;;;;;;;;;5091979;28;20036;-48
2022/03/06 13:45:59;;;;;;;11.00;6.35;;;;;;;;;;5091127;28;20023;-49
2022/03/06 13:48:28;;;;;;;20.63;12.63;;;;;;;;;;5093042;28;20024;-52
2022/03/06 13:50:55;;;;;;;11.15;6.88;;;;;;;;;;5092701;28;20068;-52
2022/03/06 13:53:21;;;;;;;9.80;7.50;;;;;;;;;;5092627;28;20024;-47
2022/03/06 13:55:49;;;;;;;15.23;9.98;;;;;;;;;;5092671;28;20028;-45
2022/03/06 13:58:16;;;;;;;16.58;9.77;;;;;;;;;;5092491;28;20047;-43
2022/03/06 14:00:48;;;;;;;16.45;8.27;;;;;;;;;;5092402;28;20428;-46
2022/03/06 14:03:16;;;;;;;10.55;7.07;;;;;;;;;;5092755;28;20172;-44
2022/03/06 14:05:48;;;;;;;8.93;6.35;;;;;;;;;;5092500;28;20070;-44
2022/03/06 14:08:19;;;;;;;11.15;7.43;;;;;;;;;;5092457;28;20537;-45
2022/03/06 14:10:58;;;;;;;7.05;5.15;;;;;;;;;;5092703;28;20035;-47
2022/03/06 14:13:26;;;;;;;10.00;6.65;;;;;;;;;;5092045;28;20016;-46
2022/03/06 14:15:54;;;;;;;9.57;5.82;;;;;;;;;;5091726;28;20020;-44
2022/03/06 14:18:49;;;;;;;13.70;7.30;;;;;;;;;;5092584;28;20042;-49
2022/03/06 14:21:28;;;;;;;5.35;3.65;;;;;;;;;;5075335;28;20073;-47
2022/03/06 14:24:06;;;;;;;6.03;4.63;;;;;;;;;;5092115;28;20423;-46
2022/03/06 14:26:35;;;;;;;8.25;4.43;;;;;;;;;;5092372;28;20129;-44
2022/03/06 14:29:08;;;;;;;7.80;6.03;;;;;;;;;;5093135;28;20024;-43
2022/03/06 14:31:35;;;;;;;10.98;7.35;;;;;;;;;;5096795;28;20055;-49
2022/03/06 14:34:01;;;;;;;9.60;4.68;;;;;;;;;;5094985;28;20056;-50
2022/03/06 14:36:27;;;;;;;15.75;7.63;;;;;;;;;;5095087;28;20020;-51